sensor_id;sensor_type;location;lat;lon;timestamp;temperature;humidity
27164;DHT22;14685;50.618;7.024;2023-07-20T00:00:46;22.20;99.90
27164;DHT22;14685;50.618;7.024;2023-07-20T00:03:14;22.10;99.90
27164;DHT22;14685;50.618;7.024;2023-07-20T00:05:46;22.10;99.90
27164;DHT22;14685;50.618;7.024;2023-07-20T00:08:13;22.10;99.90
27164;DHT22;14685;50.618;7.024;2023-07-20T00:10:40;22.00;99.90
27164;DHT22;14685;50.618;7.024;2023-07-20T00:13:09;21.90;99.90
27164;DHT22;14685;50.618;7.024;2023-07-20T00:15:36;21.80;99.90
27164;DHT22;14685;50.618;7.024;2023-07-20T00:18:05;21.70;99.90
27164;DHT22;14685;50.618;7.024;2023-07-20T00:20:32;21.70;99.90
27164;DHT22;14685;50.618;7.024;2023-07-20T00:22:59;21.70;99.90
27164;DHT22;14685;50.618;7.024;2023-07-20T00:25:26;21.60;99.90
27164;DHT22;14685;50.618;7.024;2023-07-20T00:27:54;21.60;99.90
27164;DHT22;14685;50.618;7.024;2023-07-20T00:30:21;21.60;99.90
27164;DHT22;14685;50.618;7.024;2023-07-20T00:32:48;21.50;99.90
27164;DHT22;14685;50.618;7.024;2023-07-20T00:35:15;21.40;99.90
27164;DHT22;14685;50.618;7.024;2023-07-20T00:37:42;21.50;99.90
27164;DHT22;14685;50.618;7.024;2023-07-20T00:40:09;21.40;99.90
27164;DHT22;14685;50.618;7.024;2023-07-20T00:42:36;21.50;99.90
27164;DHT22;14685;50.618;7.024;2023-07-20T00:45:03;21.40;99.90
27164;DHT22;14685;50.618;7.024;2023-07-20T00:47:31;21.40;99.90
27164;DHT22;14685;50.618;7.024;2023-07-20T00:49:59;21.40;99.90
27164;DHT22;14685;50.618;7.024;2023-07-20T00:52:27;21.20;99.90
27164;DHT22;14685;50.618;7.024;2023-07-20T00:54:57;21.30;99.90
27164;DHT22;14685;50.618;7.024;2023-07-20T00:57:25;21.30;99.90
27164;DHT22;14685;50.618;7.024;2023-07-20T00:59:52;21.30;99.90
27164;DHT22;14685;50.618;7.024;2023-07-20T01:02:21;21.30;99.90
27164;DHT22;14685;50.618;7.024;2023-07-20T01:04:49;21.20;99.90
27164;DHT22;14685;50.618;7.024;2023-07-20T01:10:06;21.20;99.90
27164;DHT22;14685;50.618;7.024;2023-07-20T01:12:43;21.20;99.90
27164;DHT22;14685;50.618;7.024;2023-07-20T01:15:12;21.20;99.90
27164;DHT22;14685;50.618;7.024;2023-07-20T01:17:39;21.20;99.90
27164;DHT22;14685;50.618;7.024;2023-07-20T01:20:08;21.20;99.90
27164;DHT22;14685;50.618;7.024;2023-07-20T01:25:37;21.10;99.90
27164;DHT22;14685;50.618;7.024;2023-07-20T01:31:14;21.00;99.90
27164;DHT22;14685;50.618;7.024;2023-07-20T01:33:44;21.00;99.90
27164;DHT22;14685;50.618;7.024;2023-07-20T01:36:12;21.00;99.90
27164;DHT22;14685;50.618;7.024;2023-07-20T01:38:41;21.00;99.90
27164;DHT22;14685;50.618;7.024;2023-07-20T01:41:10;20.90;99.90
27164;DHT22;14685;50.618;7.024;2023-07-20T01:43:37;20.90;99.90
27164;DHT22;14685;50.618;7.024;2023-07-20T01:46:04;20.90;99.90
27164;DHT22;14685;50.618;7.024;2023-07-20T01:48:31;20.90;99.90
27164;DHT22;14685;50.618;7.024;2023-07-20T01:50:59;20.90;99.90
27164;DHT22;14685;50.618;7.024;2023-07-20T01:53:25;20.80;99.90
27164;DHT22;14685;50.618;7.024;2023-07-20T01:55:53;20.80;99.90
27164;DHT22;14685;50.618;7.024;2023-07-20T01:58:24;20.80;99.90
27164;DHT22;14685;50.618;7.024;2023-07-20T02:00:51;20.80;99.90
27164;DHT22;14685;50.618;7.024;2023-07-20T02:03:19;20.80;99.90
27164;DHT22;14685;50.618;7.024;2023-07-20T02:05:48;20.70;99.90
27164;DHT22;14685;50.618;7.024;2023-07-20T02:08:15;20.70;99.90
27164;DHT22;14685;50.618;7.024;2023-07-20T02:10:45;20.70;99.90
27164;DHT22;14685;50.618;7.024;2023-07-20T02:13:12;20.70;99.90
27164;DHT22;14685;50.618;7.024;2023-07-20T02:15:39;20.70;99.90
27164;DHT22;14685;50.618;7.024;2023-07-20T02:18:07;20.70;99.90
27164;DHT22;14685;50.618;7.024;2023-07-20T02:20:34;20.60;99.90
27164;DHT22;14685;50.618;7.024;2023-07-20T02:23:02;20.60;99.90
27164;DHT22;14685;50.618;7.024;2023-07-20T02:25:28;20.60;99.90
27164;DHT22;14685;50.618;7.024;2023-07-20T02:27:56;20.60;99.90
27164;DHT22;14685;50.618;7.024;2023-07-20T02:30:23;20.60;99.90
27164;DHT22;14685;50.618;7.024;2023-07-20T02:32:50;20.60;99.90
27164;DHT22;14685;50.618;7.024;2023-07-20T02:35:20;20.60;99.90
27164;DHT22;14685;50.618;7.024;2023-07-20T02:37:47;20.60;99.90
27164;DHT22;14685;50.618;7.024;2023-07-20T02:40:14;20.50;99.90
27164;DHT22;14685;50.618;7.024;2023-07-20T02:42:41;20.50;99.90
27164;DHT22;14685;50.618;7.024;2023-07-20T02:45:08;20.50;99.90
27164;DHT22;14685;50.618;7.024;2023-07-20T02:47:35;20.50;99.90
27164;DHT22;14685;50.618;7.024;2023-07-20T02:50:05;20.40;99.90
27164;DHT22;14685;50.618;7.024;2023-07-20T02:52:32;20.40;99.90
27164;DHT22;14685;50.618;7.024;2023-07-20T02:54:59;20.40;99.90
27164;DHT22;14685;50.618;7.024;2023-07-20T02:57:26;20.40;99.90
27164;DHT22;14685;50.618;7.024;2023-07-20T02:59:53;20.40;99.90
27164;DHT22;14685;50.618;7.024;2023-07-20T03:02:21;20.30;99.90
27164;DHT22;14685;50.618;7.024;2023-07-20T03:04:48;20.30;99.90
27164;DHT22;14685;50.618;7.024;2023-07-20T03:07:15;20.30;99.90
27164;DHT22;14685;50.618;7.024;2023-07-20T03:09:46;20.30;99.90
27164;DHT22;14685;50.618;7.024;2023-07-20T03:12:14;20.30;99.90
27164;DHT22;14685;50.618;7.024;2023-07-20T03:14:42;20.20;99.90
27164;DHT22;14685;50.618;7.024;2023-07-20T03:17:09;20.20;99.90
27164;DHT22;14685;50.618;7.024;2023-07-20T03:19:35;20.20;99.90
27164;DHT22;14685;50.618;7.024;2023-07-20T03:22:03;20.20;99.90
27164;DHT22;14685;50.618;7.024;2023-07-20T03:24:30;20.10;99.90
27164;DHT22;14685;50.618;7.024;2023-07-20T03:26:57;20.10;99.90
27164;DHT22;14685;50.618;7.024;2023-07-20T03:29:24;20.10;99.90
27164;DHT22;14685;50.618;7.024;2023-07-20T03:31:51;20.00;99.90
27164;DHT22;14685;50.618;7.024;2023-07-20T03:34:18;20.00;99.90
27164;DHT22;14685;50.618;7.024;2023-07-20T03:36:44;20.00;99.90
27164;DHT22;14685;50.618;7.024;2023-07-20T03:39:11;20.00;99.90
27164;DHT22;14685;50.618;7.024;2023-07-20T03:41:38;19.90;99.90
27164;DHT22;14685;50.618;7.024;2023-07-20T03:44:06;19.90;99.90
27164;DHT22;14685;50.618;7.024;2023-07-20T03:46:33;19.90;99.90
27164;DHT22;14685;50.618;7.024;2023-07-20T03:49:01;19.90;99.90
27164;DHT22;14685;50.618;7.024;2023-07-20T03:51:28;19.90;99.90
27164;DHT22;14685;50.618;7.024;2023-07-20T03:53:58;19.80;99.90
27164;DHT22;14685;50.618;7.024;2023-07-20T03:56:27;19.80;99.90
27164;DHT22;14685;50.618;7.024;2023-07-20T03:58:55;19.80;99.90
27164;DHT22;14685;50.618;7.024;2023-07-20T04:01:23;19.80;99.90
27164;DHT22;14685;50.618;7.024;2023-07-20T04:03:50;19.80;99.90
27164;DHT22;14685;50.618;7.024;2023-07-20T04:06:19;19.70;99.90
27164;DHT22;14685;50.618;7.024;2023-07-20T04:08:47;19.70;99.90
27164;DHT22;14685;50.618;7.024;2023-07-20T04:11:15;19.70;99.90
27164;DHT22;14685;50.618;7.024;2023-07-20T04:13:44;19.70;99.90
27164;DHT22;14685;50.618;7.024;2023-07-20T04:16:11;19.70;99.90
27164;DHT22;14685;50.618;7.024;2023-07-20T04:18:41;19.70;99.90
27164;DHT22;14685;50.618;7.024;2023-07-20T04:21:08;19.70;99.90
27164;DHT22;14685;50.618;7.024;2023-07-20T04:23:37;19.70;99.90
27164;DHT22;14685;50.618;7.024;2023-07-20T04:26:11;19.70;99.90
27164;DHT22;14685;50.618;7.024;2023-07-20T04:28:40;19.70;99.90
27164;DHT22;14685;50.618;7.024;2023-07-20T04:31:16;19.70;99.90
27164;DHT22;14685;50.618;7.024;2023-07-20T04:33:42;19.70;99.90
27164;DHT22;14685;50.618;7.024;2023-07-20T04:36:09;19.60;99.90
27164;DHT22;14685;50.618;7.024;2023-07-20T04:38:36;19.70;99.90
27164;DHT22;14685;50.618;7.024;2023-07-20T04:41:04;19.70;99.90
27164;DHT22;14685;50.618;7.024;2023-07-20T04:43:32;19.60;99.90
27164;DHT22;14685;50.618;7.024;2023-07-20T04:45:59;19.70;99.90
27164;DHT22;14685;50.618;7.024;2023-07-20T04:48:27;19.70;99.90
27164;DHT22;14685;50.618;7.024;2023-07-20T04:50:57;19.70;99.90
27164;DHT22;14685;50.618;7.024;2023-07-20T04:53:24;19.70;99.90
27164;DHT22;14685;50.618;7.024;2023-07-20T04:55:51;19.70;99.90
27164;DHT22;14685;50.618;7.024;2023-07-20T04:58:20;19.70;99.90
27164;DHT22;14685;50.618;7.024;2023-07-20T05:00:51;19.70;99.90
27164;DHT22;14685;50.618;7.024;2023-07-20T05:03:18;19.70;99.90
27164;DHT22;14685;50.618;7.024;2023-07-20T05:05:46;19.70;99.90
27164;DHT22;14685;50.618;7.024;2023-07-20T05:08:16;19.70;99.90
27164;DHT22;14685;50.618;7.024;2023-07-20T05:10:43;19.80;99.90
27164;DHT22;14685;50.618;7.024;2023-07-20T05:13:11;19.80;99.90
27164;DHT22;14685;50.618;7.024;2023-07-20T05:15:39;19.80;99.90
27164;DHT22;14685;50.618;7.024;2023-07-20T05:18:06;19.80;99.90
27164;DHT22;14685;50.618;7.024;2023-07-20T05:20:34;19.80;99.90
27164;DHT22;14685;50.618;7.024;2023-07-20T05:23:02;19.80;99.90
27164;DHT22;14685;50.618;7.024;2023-07-20T05:25:29;19.80;99.90
27164;DHT22;14685;50.618;7.024;2023-07-20T05:27:57;19.90;99.90
27164;DHT22;14685;50.618;7.024;2023-07-20T05:30:24;19.90;99.90
27164;DHT22;14685;50.618;7.024;2023-07-20T05:32:51;19.90;99.90
27164;DHT22;14685;50.618;7.024;2023-07-20T05:35:19;19.90;99.90
27164;DHT22;14685;50.618;7.024;2023-07-20T05:37:46;19.90;99.90
27164;DHT22;14685;50.618;7.024;2023-07-20T05:40:14;19.90;99.90
27164;DHT22;14685;50.618;7.024;2023-07-20T05:42:48;19.90;99.90
27164;DHT22;14685;50.618;7.024;2023-07-20T05:45:16;19.90;99.90
27164;DHT22;14685;50.618;7.024;2023-07-20T05:47:43;19.90;99.90
27164;DHT22;14685;50.618;7.024;2023-07-20T05:50:10;19.90;99.90
27164;DHT22;14685;50.618;7.024;2023-07-20T05:52:37;20.00;99.90
27164;DHT22;14685;50.618;7.024;2023-07-20T05:55:06;20.00;99.90
27164;DHT22;14685;50.618;7.024;2023-07-20T05:57:33;20.00;99.90
27164;DHT22;14685;50.618;7.024;2023-07-20T06:00:02;20.00;99.90
27164;DHT22;14685;50.618;7.024;2023-07-20T06:02:30;20.10;99.90
27164;DHT22;14685;50.618;7.024;2023-07-20T06:04:59;20.10;99.90
27164;DHT22;14685;50.618;7.024;2023-07-20T06:07:26;20.20;99.90
27164;DHT22;14685;50.618;7.024;2023-07-20T06:09:53;20.20;99.90
27164;DHT22;14685;50.618;7.024;2023-07-20T06:12:20;20.20;99.90
27164;DHT22;14685;50.618;7.024;2023-07-20T06:14:50;20.30;99.90
27164;DHT22;14685;50.618;7.024;2023-07-20T06:17:17;20.30;99.90
27164;DHT22;14685;50.618;7.024;2023-07-20T06:19:44;20.30;99.90
27164;DHT22;14685;50.618;7.024;2023-07-20T06:22:11;20.40;99.90
27164;DHT22;14685;50.618;7.024;2023-07-20T06:24:38;20.40;99.90
27164;DHT22;14685;50.618;7.024;2023-07-20T06:27:05;20.40;99.90
27164;DHT22;14685;50.618;7.024;2023-07-20T06:29:32;20.40;99.90
27164;DHT22;14685;50.618;7.024;2023-07-20T06:31:59;20.40;99.90
27164;DHT22;14685;50.618;7.024;2023-07-20T06:34:26;20.50;99.90
27164;DHT22;14685;50.618;7.024;2023-07-20T06:36:53;20.50;99.90
27164;DHT22;14685;50.618;7.024;2023-07-20T06:39:21;20.60;99.90
27164;DHT22;14685;50.618;7.024;2023-07-20T06:41:52;20.70;99.90
27164;DHT22;14685;50.618;7.024;2023-07-20T06:44:22;20.80;99.90
27164;DHT22;14685;50.618;7.024;2023-07-20T06:46:49;20.80;99.90
27164;DHT22;14685;50.618;7.024;2023-07-20T06:49:27;20.90;99.90
27164;DHT22;14685;50.618;7.024;2023-07-20T06:51:54;20.90;99.90
27164;DHT22;14685;50.618;7.024;2023-07-20T06:54:21;20.90;99.90
27164;DHT22;14685;50.618;7.024;2023-07-20T06:56:50;20.90;99.90
27164;DHT22;14685;50.618;7.024;2023-07-20T06:59:37;20.90;99.90
27164;DHT22;14685;50.618;7.024;2023-07-20T07:02:08;20.80;99.90
27164;DHT22;14685;50.618;7.024;2023-07-20T07:04:41;20.90;99.90
27164;DHT22;14685;50.618;7.024;2023-07-20T07:07:09;20.90;99.90
27164;DHT22;14685;50.618;7.024;2023-07-20T07:09:36;20.90;99.90
27164;DHT22;14685;50.618;7.024;2023-07-20T07:12:04;20.90;99.90
27164;DHT22;14685;50.618;7.024;2023-07-20T07:14:31;20.90;99.90
27164;DHT22;14685;50.618;7.024;2023-07-20T07:16:59;21.00;99.90
27164;DHT22;14685;50.618;7.024;2023-07-20T07:19:30;21.10;99.90
27164;DHT22;14685;50.618;7.024;2023-07-20T07:21:57;21.10;99.90
27164;DHT22;14685;50.618;7.024;2023-07-20T07:24:26;21.10;99.90
27164;DHT22;14685;50.618;7.024;2023-07-20T07:26:55;21.10;99.90
27164;DHT22;14685;50.618;7.024;2023-07-20T07:29:23;21.10;99.90
27164;DHT22;14685;50.618;7.024;2023-07-20T07:31:50;21.20;99.90
27164;DHT22;14685;50.618;7.024;2023-07-20T07:34:17;21.20;99.90
27164;DHT22;14685;50.618;7.024;2023-07-20T07:36:44;21.20;99.90
27164;DHT22;14685;50.618;7.024;2023-07-20T07:39:12;21.30;99.90
27164;DHT22;14685;50.618;7.024;2023-07-20T07:41:42;21.40;99.90
27164;DHT22;14685;50.618;7.024;2023-07-20T07:44:08;21.40;99.90
27164;DHT22;14685;50.618;7.024;2023-07-20T07:46:35;21.40;99.90
27164;DHT22;14685;50.618;7.024;2023-07-20T07:49:02;21.40;99.90
27164;DHT22;14685;50.618;7.024;2023-07-20T07:51:29;21.50;99.90
27164;DHT22;14685;50.618;7.024;2023-07-20T07:56:25;21.60;99.90
27164;DHT22;14685;50.618;7.024;2023-07-20T07:58:52;21.60;99.90
27164;DHT22;14685;50.618;7.024;2023-07-20T08:01:20;21.70;99.90
27164;DHT22;14685;50.618;7.024;2023-07-20T08:03:48;21.70;99.90
27164;DHT22;14685;50.618;7.024;2023-07-20T08:06:15;21.80;99.90
27164;DHT22;14685;50.618;7.024;2023-07-20T08:08:42;21.80;99.90
27164;DHT22;14685;50.618;7.024;2023-07-20T08:11:10;21.90;99.90
27164;DHT22;14685;50.618;7.024;2023-07-20T08:13:40;21.90;99.90
27164;DHT22;14685;50.618;7.024;2023-07-20T08:16:07;21.90;99.90
27164;DHT22;14685;50.618;7.024;2023-07-20T08:18:34;21.90;99.90
27164;DHT22;14685;50.618;7.024;2023-07-20T08:21:02;21.90;99.90
27164;DHT22;14685;50.618;7.024;2023-07-20T08:25:57;22.50;99.90
27164;DHT22;14685;50.618;7.024;2023-07-20T08:28:24;22.60;99.90
27164;DHT22;14685;50.618;7.024;2023-07-20T08:30:53;22.60;99.90
27164;DHT22;14685;50.618;7.024;2023-07-20T08:33:20;22.60;99.90
27164;DHT22;14685;50.618;7.024;2023-07-20T08:35:47;22.60;99.90
27164;DHT22;14685;50.618;7.024;2023-07-20T08:38:14;22.60;99.90
27164;DHT22;14685;50.618;7.024;2023-07-20T08:40:43;22.80;99.90
27164;DHT22;14685;50.618;7.024;2023-07-20T08:43:11;22.80;99.90
27164;DHT22;14685;50.618;7.024;2023-07-20T08:45:40;23.00;99.90
27164;DHT22;14685;50.618;7.024;2023-07-20T08:48:08;23.30;99.90
27164;DHT22;14685;50.618;7.024;2023-07-20T08:50:35;23.50;99.90
27164;DHT22;14685;50.618;7.024;2023-07-20T08:53:03;23.70;99.90
27164;DHT22;14685;50.618;7.024;2023-07-20T08:55:30;23.80;99.90
27164;DHT22;14685;50.618;7.024;2023-07-20T08:57:59;23.90;99.90
27164;DHT22;14685;50.618;7.024;2023-07-20T09:00:27;24.10;99.90
27164;DHT22;14685;50.618;7.024;2023-07-20T09:02:57;24.20;99.90
27164;DHT22;14685;50.618;7.024;2023-07-20T09:05:32;24.30;99.90
27164;DHT22;14685;50.618;7.024;2023-07-20T09:08:00;24.30;99.90
27164;DHT22;14685;50.618;7.024;2023-07-20T09:10:27;24.30;99.90
27164;DHT22;14685;50.618;7.024;2023-07-20T09:12:54;24.50;99.90
27164;DHT22;14685;50.618;7.024;2023-07-20T09:15:22;24.60;99.90
27164;DHT22;14685;50.618;7.024;2023-07-20T09:17:50;24.70;99.90
27164;DHT22;14685;50.618;7.024;2023-07-20T09:20:18;24.60;99.90
27164;DHT22;14685;50.618;7.024;2023-07-20T09:22:51;24.40;99.90
27164;DHT22;14685;50.618;7.024;2023-07-20T09:25:21;24.30;99.90
27164;DHT22;14685;50.618;7.024;2023-07-20T09:27:52;24.30;99.90
27164;DHT22;14685;50.618;7.024;2023-07-20T09:30:25;24.40;99.90
27164;DHT22;14685;50.618;7.024;2023-07-20T09:32:58;24.60;99.90
27164;DHT22;14685;50.618;7.024;2023-07-20T09:35:26;24.80;99.90
27164;DHT22;14685;50.618;7.024;2023-07-20T09:38:08;24.90;99.90
27164;DHT22;14685;50.618;7.024;2023-07-20T09:40:40;25.00;99.90
27164;DHT22;14685;50.618;7.024;2023-07-20T09:43:10;25.10;99.90
27164;DHT22;14685;50.618;7.024;2023-07-20T09:45:41;25.20;99.90
27164;DHT22;14685;50.618;7.024;2023-07-20T09:48:12;25.30;99.90
27164;DHT22;14685;50.618;7.024;2023-07-20T09:50:48;25.50;99.90
27164;DHT22;14685;50.618;7.024;2023-07-20T09:53:16;25.60;99.90
27164;DHT22;14685;50.618;7.024;2023-07-20T09:55:46;25.70;99.90
27164;DHT22;14685;50.618;7.024;2023-07-20T09:58:14;25.80;99.90
27164;DHT22;14685;50.618;7.024;2023-07-20T10:00:44;25.90;99.90
27164;DHT22;14685;50.618;7.024;2023-07-20T10:03:19;25.90;99.90
27164;DHT22;14685;50.618;7.024;2023-07-20T10:05:54;25.90;99.90
27164;DHT22;14685;50.618;7.024;2023-07-20T10:08:25;26.00;99.90
27164;DHT22;14685;50.618;7.024;2023-07-20T10:13:30;26.20;99.90
27164;DHT22;14685;50.618;7.024;2023-07-20T10:16:02;26.30;99.90
27164;DHT22;14685;50.618;7.024;2023-07-20T10:21:20;26.30;99.90
27164;DHT22;14685;50.618;7.024;2023-07-20T10:23:53;26.30;99.90
27164;DHT22;14685;50.618;7.024;2023-07-20T10:26:25;26.40;99.90
27164;DHT22;14685;50.618;7.024;2023-07-20T10:28:53;26.50;99.90
27164;DHT22;14685;50.618;7.024;2023-07-20T10:31:22;26.40;99.00
27164;DHT22;14685;50.618;7.024;2023-07-20T10:33:49;26.30;99.70
27164;DHT22;14685;50.618;7.024;2023-07-20T10:36:25;26.30;99.90
27164;DHT22;14685;50.618;7.024;2023-07-20T10:38:58;26.30;99.70
27164;DHT22;14685;50.618;7.024;2023-07-20T10:41:28;26.30;99.90
27164;DHT22;14685;50.618;7.024;2023-07-20T10:44:02;26.30;99.90
27164;DHT22;14685;50.618;7.024;2023-07-20T10:49:10;26.50;98.10
27164;DHT22;14685;50.618;7.024;2023-07-20T10:51:47;26.50;98.40
27164;DHT22;14685;50.618;7.024;2023-07-20T10:56:47;26.60;98.20
27164;DHT22;14685;50.618;7.024;2023-07-20T10:59:37;26.60;98.30
27164;DHT22;14685;50.618;7.024;2023-07-20T11:02:08;26.60;98.00
27164;DHT22;14685;50.618;7.024;2023-07-20T11:04:42;26.60;97.40
27164;DHT22;14685;50.618;7.024;2023-07-20T11:07:10;26.50;95.70
27164;DHT22;14685;50.618;7.024;2023-07-20T11:09:38;26.40;96.00
27164;DHT22;14685;50.618;7.024;2023-07-20T11:12:17;26.30;97.30
27164;DHT22;14685;50.618;7.024;2023-07-20T11:14:56;26.30;97.20
27164;DHT22;14685;50.618;7.024;2023-07-20T11:17:30;26.40;97.00
27164;DHT22;14685;50.618;7.024;2023-07-20T11:19:59;26.50;97.70
27164;DHT22;14685;50.618;7.024;2023-07-20T11:22:31;26.50;97.80
27164;DHT22;14685;50.618;7.024;2023-07-20T11:24:58;26.60;98.00
27164;DHT22;14685;50.618;7.024;2023-07-20T11:27:25;26.70;97.40
27164;DHT22;14685;50.618;7.024;2023-07-20T11:29:53;26.70;98.00
27164;DHT22;14685;50.618;7.024;2023-07-20T11:32:24;26.70;98.00
27164;DHT22;14685;50.618;7.024;2023-07-20T11:34:51;26.70;96.30
27164;DHT22;14685;50.618;7.024;2023-07-20T11:37:18;26.70;97.70
27164;DHT22;14685;50.618;7.024;2023-07-20T11:39:47;26.60;96.50
27164;DHT22;14685;50.618;7.024;2023-07-20T11:42:14;26.60;96.80
27164;DHT22;14685;50.618;7.024;2023-07-20T11:44:51;26.60;97.60
27164;DHT22;14685;50.618;7.024;2023-07-20T11:47:18;26.60;97.80
27164;DHT22;14685;50.618;7.024;2023-07-20T11:49:45;26.70;97.50
27164;DHT22;14685;50.618;7.024;2023-07-20T11:52:23;26.70;96.30
27164;DHT22;14685;50.618;7.024;2023-07-20T11:54:50;26.70;96.70
27164;DHT22;14685;50.618;7.024;2023-07-20T11:57:19;26.80;95.80
27164;DHT22;14685;50.618;7.024;2023-07-20T12:00:11;26.80;95.90
27164;DHT22;14685;50.618;7.024;2023-07-20T12:02:40;26.80;95.20
27164;DHT22;14685;50.618;7.024;2023-07-20T12:05:07;26.80;94.50
27164;DHT22;14685;50.618;7.024;2023-07-20T12:07:36;26.80;95.50
27164;DHT22;14685;50.618;7.024;2023-07-20T12:10:08;26.90;95.60
27164;DHT22;14685;50.618;7.024;2023-07-20T12:12:40;26.90;95.90
27164;DHT22;14685;50.618;7.024;2023-07-20T12:15:21;26.80;94.70
27164;DHT22;14685;50.618;7.024;2023-07-20T12:17:53;26.80;94.80
27164;DHT22;14685;50.618;7.024;2023-07-20T12:23:03;26.80;96.50
27164;DHT22;14685;50.618;7.024;2023-07-20T12:25:38;26.70;96.30
27164;DHT22;14685;50.618;7.024;2023-07-20T12:28:19;26.80;95.80
27164;DHT22;14685;50.618;7.024;2023-07-20T12:30:46;26.80;95.50
27164;DHT22;14685;50.618;7.024;2023-07-20T12:33:18;26.80;96.20
27164;DHT22;14685;50.618;7.024;2023-07-20T12:35:45;26.80;96.20
27164;DHT22;14685;50.618;7.024;2023-07-20T12:38:12;26.80;95.20
27164;DHT22;14685;50.618;7.024;2023-07-20T12:40:40;26.80;94.90
27164;DHT22;14685;50.618;7.024;2023-07-20T12:43:07;26.90;95.80
27164;DHT22;14685;50.618;7.024;2023-07-20T12:45:35;26.90;95.70
27164;DHT22;14685;50.618;7.024;2023-07-20T12:48:02;26.90;95.00
27164;DHT22;14685;50.618;7.024;2023-07-20T12:50:29;26.90;94.90
27164;DHT22;14685;50.618;7.024;2023-07-20T12:52:57;26.90;96.30
27164;DHT22;14685;50.618;7.024;2023-07-20T12:55:23;26.90;96.30
27164;DHT22;14685;50.618;7.024;2023-07-20T12:57:53;26.90;96.70
27164;DHT22;14685;50.618;7.024;2023-07-20T13:00:20;26.90;95.50
27164;DHT22;14685;50.618;7.024;2023-07-20T13:02:50;27.00;95.70
27164;DHT22;14685;50.618;7.024;2023-07-20T13:05:35;27.00;95.10
27164;DHT22;14685;50.618;7.024;2023-07-20T13:08:05;26.90;95.20
27164;DHT22;14685;50.618;7.024;2023-07-20T13:10:35;26.90;95.10
27164;DHT22;14685;50.618;7.024;2023-07-20T13:13:02;26.90;95.60
27164;DHT22;14685;50.618;7.024;2023-07-20T13:15:32;26.90;95.40
27164;DHT22;14685;50.618;7.024;2023-07-20T13:18:01;26.90;94.90
27164;DHT22;14685;50.618;7.024;2023-07-20T13:20:27;26.90;94.60
27164;DHT22;14685;50.618;7.024;2023-07-20T13:22:55;26.90;94.80
27164;DHT22;14685;50.618;7.024;2023-07-20T13:25:21;26.90;94.20
27164;DHT22;14685;50.618;7.024;2023-07-20T13:27:48;26.90;93.60
27164;DHT22;14685;50.618;7.024;2023-07-20T13:30:17;26.90;94.20
27164;DHT22;14685;50.618;7.024;2023-07-20T13:32:44;27.00;95.00
27164;DHT22;14685;50.618;7.024;2023-07-20T13:35:12;27.00;94.80
27164;DHT22;14685;50.618;7.024;2023-07-20T13:37:39;27.00;94.30
27164;DHT22;14685;50.618;7.024;2023-07-20T13:40:07;27.00;93.20
27164;DHT22;14685;50.618;7.024;2023-07-20T13:42:39;26.90;93.20
27164;DHT22;14685;50.618;7.024;2023-07-20T13:45:08;26.90;94.00
27164;DHT22;14685;50.618;7.024;2023-07-20T13:47:36;26.90;94.50
27164;DHT22;14685;50.618;7.024;2023-07-20T13:50:04;27.00;94.70
27164;DHT22;14685;50.618;7.024;2023-07-20T13:52:31;27.00;94.10
27164;DHT22;14685;50.618;7.024;2023-07-20T13:55:01;27.00;94.40
27164;DHT22;14685;50.618;7.024;2023-07-20T13:57:31;26.90;92.20
27164;DHT22;14685;50.618;7.024;2023-07-20T14:00:02;26.90;92.40
27164;DHT22;14685;50.618;7.024;2023-07-20T14:02:32;26.90;93.60
27164;DHT22;14685;50.618;7.024;2023-07-20T14:05:02;26.90;92.90
27164;DHT22;14685;50.618;7.024;2023-07-20T14:07:32;26.90;93.50
27164;DHT22;14685;50.618;7.024;2023-07-20T14:10:00;26.90;92.70
27164;DHT22;14685;50.618;7.024;2023-07-20T14:12:30;26.90;93.50
27164;DHT22;14685;50.618;7.024;2023-07-20T14:14:57;26.90;92.80
27164;DHT22;14685;50.618;7.024;2023-07-20T14:17:25;26.90;92.50
27164;DHT22;14685;50.618;7.024;2023-07-20T14:19:53;26.90;93.00
27164;DHT22;14685;50.618;7.024;2023-07-20T14:22:19;26.90;93.20
27164;DHT22;14685;50.618;7.024;2023-07-20T14:24:46;26.80;92.40
27164;DHT22;14685;50.618;7.024;2023-07-20T14:27:13;26.80;91.50
27164;DHT22;14685;50.618;7.024;2023-07-20T14:29:41;26.80;91.70
27164;DHT22;14685;50.618;7.024;2023-07-20T14:32:08;26.80;91.60
27164;DHT22;14685;50.618;7.024;2023-07-20T14:34:36;26.70;92.20
27164;DHT22;14685;50.618;7.024;2023-07-20T14:37:05;26.80;92.50
27164;DHT22;14685;50.618;7.024;2023-07-20T14:39:33;26.80;92.30
27164;DHT22;14685;50.618;7.024;2023-07-20T14:42:00;26.80;92.80
27164;DHT22;14685;50.618;7.024;2023-07-20T14:44:27;26.70;92.60
27164;DHT22;14685;50.618;7.024;2023-07-20T14:46:54;26.80;92.80
27164;DHT22;14685;50.618;7.024;2023-07-20T14:49:40;26.60;93.10
27164;DHT22;14685;50.618;7.024;2023-07-20T14:52:11;26.60;93.20
27164;DHT22;14685;50.618;7.024;2023-07-20T14:54:42;26.60;93.10
27164;DHT22;14685;50.618;7.024;2023-07-20T14:57:09;26.50;93.20
27164;DHT22;14685;50.618;7.024;2023-07-20T14:59:42;26.50;93.70
27164;DHT22;14685;50.618;7.024;2023-07-20T15:02:09;26.40;93.60
27164;DHT22;14685;50.618;7.024;2023-07-20T15:04:36;26.50;94.10
27164;DHT22;14685;50.618;7.024;2023-07-20T15:07:03;26.40;94.00
27164;DHT22;14685;50.618;7.024;2023-07-20T15:09:30;26.50;94.60
27164;DHT22;14685;50.618;7.024;2023-07-20T15:11:58;26.50;94.50
27164;DHT22;14685;50.618;7.024;2023-07-20T15:14:24;26.40;94.10
27164;DHT22;14685;50.618;7.024;2023-07-20T15:16:51;26.50;94.00
27164;DHT22;14685;50.618;7.024;2023-07-20T15:19:19;26.50;94.10
27164;DHT22;14685;50.618;7.024;2023-07-20T15:21:49;26.50;93.90
27164;DHT22;14685;50.618;7.024;2023-07-20T15:24:16;26.50;93.50
27164;DHT22;14685;50.618;7.024;2023-07-20T15:26:43;26.50;93.90
27164;DHT22;14685;50.618;7.024;2023-07-20T15:29:10;26.50;93.80
27164;DHT22;14685;50.618;7.024;2023-07-20T15:31:58;26.50;93.60
27164;DHT22;14685;50.618;7.024;2023-07-20T15:34:26;26.50;93.10
27164;DHT22;14685;50.618;7.024;2023-07-20T15:36:54;26.40;92.40
27164;DHT22;14685;50.618;7.024;2023-07-20T15:39:21;26.30;93.80
27164;DHT22;14685;50.618;7.024;2023-07-20T15:41:48;26.30;93.30
27164;DHT22;14685;50.618;7.024;2023-07-20T15:44:15;26.30;93.10
27164;DHT22;14685;50.618;7.024;2023-07-20T15:49:09;26.30;92.20
27164;DHT22;14685;50.618;7.024;2023-07-20T15:51:36;26.30;91.50
27164;DHT22;14685;50.618;7.024;2023-07-20T15:54:04;26.30;91.20
27164;DHT22;14685;50.618;7.024;2023-07-20T15:56:36;26.30;91.30
27164;DHT22;14685;50.618;7.024;2023-07-20T15:59:05;26.30;92.40
27164;DHT22;14685;50.618;7.024;2023-07-20T16:01:33;26.30;92.00
27164;DHT22;14685;50.618;7.024;2023-07-20T16:04:01;26.20;92.50
27164;DHT22;14685;50.618;7.024;2023-07-20T16:06:28;26.10;91.30
27164;DHT22;14685;50.618;7.024;2023-07-20T16:08:55;26.20;92.10